Time;durP1;ratioP1;P1;durP2;ratioP2;P2;SDS_P1;SDS_P2;PMS_P1;PMS_P2;Temp;Humidity;BMP_temperature;BMP_pressure;BME280_temperature;BME280_humidity;BME280_pressure;Samples;Min_cycle;Max_cycle;Signal;HPM_P1;HPM_P2
2022/03/12 00:00:35;;;;;;;9.90;7.22;;;;;;;9.69;43.81;101313.72;5054053;28;20017;-36
2022/03/12 00:03:00;;;;;;;8.88;6.95;;;;;;;9.70;44.07;101315.38;5053049;28;20036;-35
2022/03/12 00:05:29;;;;;;;9.40;7.45;;;;;;;9.71;43.96;101304.38;5054252;28;20456;-36
2022/03/12 00:07:54;;;;;;;9.27;7.63;;;;;;;9.73;43.75;101305.00;5054087;28;20386;-35
2022/03/12 00:10:22;;;;;;;9.48;7.25;;;;;;;9.65;43.55;101299.00;5054398;28;20029;-35
2022/03/12 00:12:48;;;;;;;9.00;7.40;;;;;;;9.71;44.45;101308.94;5054269;28;20031;-35
2022/03/12 00:15:14;;;;;;;9.88;7.40;;;;;;;9.66;43.64;101306.03;5054245;28;20021;-35
2022/03/12 00:17:45;;;;;;;10.60;7.03;;;;;;;9.73;43.78;101302.28;5053870;28;20031;-35
2022/03/12 00:20:12;;;;;;;10.23;7.63;;;;;;;9.74;43.61;101313.91;5053965;28;20108;-36
2022/03/12 00:22:45;;;;;;;9.07;7.53;;;;;;;9.72;44.61;101316.03;5053881;28;20094;-36
2022/03/12 00:25:13;;;;;;;8.80;7.45;;;;;;;9.73;43.79;101323.06;5053855;28;20040;-35
2022/03/12 00:27:41;;;;;;;8.90;7.43;;;;;;;9.73;43.75;101323.91;5053604;28;20480;-35
2022/03/12 00:30:08;;;;;;;9.98;7.25;;;;;;;9.69;44.48;101325.38;5053467;28;20058;-36
2022/03/12 00:32:37;;;;;;;10.00;7.68;;;;;;;9.65;44.31;101310.63;5053706;28;20040;-35
2022/03/12 00:35:04;;;;;;;11.57;8.43;;;;;;;9.62;44.60;101326.44;5053598;28;20442;-35
2022/03/12 00:37:29;;;;;;;8.60;7.13;;;;;;;9.70;44.59;101334.28;5053539;28;20465;-36
2022/03/12 00:39:55;;;;;;;9.80;7.17;;;;;;;9.69;44.59;101340.75;5054110;28;20077;-36
2022/03/12 00:42:21;;;;;;;10.85;7.63;;;;;;;9.64;44.99;101332.44;5053667;28;20076;-35
2022/03/12 00:44:46;;;;;;;10.60;7.37;;;;;;;9.66;45.25;101338.44;5053543;28;20061;-35
2022/03/12 00:47:11;;;;;;;8.00;7.10;;;;;;;9.62;44.92;101334.53;5053400;28;20112;-36
2022/03/12 00:49:37;;;;;;;8.70;7.60;;;;;;;9.62;45.37;101338.06;5053849;28;20108;-42
2022/03/12 00:52:02;;;;;;;10.80;7.43;;;;;;;9.62;45.00;101343.47;5053885;28;20033;-35
2022/03/12 00:54:28;;;;;;;11.57;7.90;;;;;;;9.61;45.13;101344.50;5053279;28;20477;-35
2022/03/12 00:56:53;;;;;;;10.03;8.10;;;;;;;9.55;45.13;101329.16;5053265;28;20033;-36
2022/03/12 00:59:18;;;;;;;14.20;8.53;;;;;;;9.58;45.60;101344.09;5053466;28;20075;-36
2022/03/12 01:01:43;;;;;;;9.90;7.87;;;;;;;9.57;46.33;101345.16;5053209;28;20021;-36
2022/03/12 01:04:09;;;;;;;12.40;8.13;;;;;;;9.48;46.00;101334.56;5053486;28;20033;-35
2022/03/12 01:06:34;;;;;;;9.57;7.20;;;;;;;9.51;46.74;101349.50;5053162;28;20473;-35
2022/03/12 01:09:01;;;;;;;11.23;7.10;;;;;;;9.48;46.20;101347.25;5051923;28;20487;-35
2022/03/12 01:11:26;;;;;;;10.48;8.23;;;;;;;9.45;47.22;101353.88;5053290;28;20053;-35
2022/03/12 01:13:52;;;;;;;11.30;8.07;;;;;;;9.45;47.81;101343.09;5052843;28;20025;-35
2022/03/12 01:16:18;;;;;;;8.57;7.40;;;;;;;9.45;48.11;101353.06;5053177;28;20028;-35
2022/03/12 01:18:43;;;;;;;;;;;;;;;9.49;47.39;101354.31;5053507;28;20424;-35
2022/03/12 01:21:14;;;;;;;10.52;7.45;;;;;;;9.43;47.54;101352.44;5053136;28;19913;-35
2022/03/12 01:23:39;;;;;;;11.70;7.90;;;;;;;9.45;48.01;101356.59;5053052;28;20078;-35
2022/03/12 01:26:05;;;;;;;8.67;7.23;;;;;;;9.36;48.90;101347.03;5052866;28;20029;-35
2022/03/12 01:28:30;;;;;;;10.87;8.03;;;;;;;9.42;48.17;101358.88;5053294;28;20036;-35
2022/03/12 01:30:56;;;;;;;10.75;8.02;;;;;;;9.37;49.14;101356.81;5051454;28;20143;-35
2022/03/12 01:33:21;;;;;;;8.93;7.40;;;;;;;9.44;49.12;101357.63;5052838;28;20025;-35
2022/03/12 01:35:46;;;;;;;10.50;9.00;;;;;;;9.38;51.09;101354.94;5052786;28;20040;-35
2022/03/12 01:38:13;;;;;;;10.20;7.67;;;;;;;9.35;50.33;101358.88;5052773;28;20090;-35
2022/03/12 01:40:39;;;;;;;10.15;7.78;;;;;;;9.36;50.86;101360.53;5053173;28;20070;-35
2022/03/12 01:43:05;;;;;;;9.82;8.48;;;;;;;9.35;50.69;101363.47;5052637;28;20072;-35
2022/03/12 01:45:31;;;;;;;12.02;7.80;;;;;;;9.26;53.34;101354.75;5052822;28;20492;-35
2022/03/12 01:47:57;;;;;;;;;;;;;;;9.37;52.86;101373.03;5053114;28;20036;-35
2022/03/12 01:50:30;;;;;;;10.40;8.07;;;;;;;9.27;53.51;101369.91;5052906;28;20292;-35
2022/03/12 01:52:59;;;;;;;10.35;7.55;;;;;;;9.23;54.27;101372.19;5053107;28;20469;-35
2022/03/12 01:55:30;;;;;;;9.45;7.95;;;;;;;9.21;55.47;101378.84;5052675;28;20028;-35
2022/03/12 01:57:57;;;;;;;13.77;9.05;;;;;;;9.17;54.87;101381.09;5052519;28;20036;-35
2022/03/12 02:00:25;;;;;;;9.82;8.63;;;;;;;9.13;56.51;101387.16;5052601;28;20033;-35
2022/03/12 02:02:53;;;;;;;10.70;7.85;;;;;;;8.98;56.41;101361.22;5052197;28;20528;-35
2022/03/12 02:05:19;;;;;;;10.23;7.72;;;;;;;9.10;57.25;101376.78;5052975;28;20414;-35
2022/03/12 02:07:46;;;;;;;11.98;8.38;;;;;;;8.99;58.24;101373.66;5052966;28;20073;-35
2022/03/12 02:10:20;;;;;;;9.82;8.30;;;;;;;8.99;58.47;101368.28;5052408;28;20029;-35
2022/03/12 02:12:45;;;;;;;11.13;9.07;;;;;;;8.94;58.38;101372.63;5052830;28;20091;-35
2022/03/12 02:15:10;;;;;;;10.57;8.60;;;;;;;8.95;58.50;101375.13;5053092;28;20416;-35
2022/03/12 02:17:39;;;;;;;10.83;8.17;;;;;;;8.93;57.87;101366.41;5052476;28;20420;-35
2022/03/12 02:20:07;;;;;;;9.68;8.18;;;;;;;8.93;57.72;101370.94;5052713;28;20025;-35
2022/03/12 02:22:32;;;;;;;10.98;9.27;;;;;;;8.91;57.73;101373.84;5052406;28;20462;-35
2022/03/12 02:24:58;;;;;;;13.32;8.25;;;;;;;8.92;57.45;101375.50;5051882;28;20025;-35
2022/03/12 02:27:25;;;;;;;10.37;8.37;;;;;;;8.86;57.92;101368.25;5055407;28;20119;-35
2022/03/12 02:29:57;;;;;;;10.63;8.05;;;;;;;8.92;57.15;101374.69;5056949;28;20064;-35
2022/03/12 02:32:22;;;;;;;10.93;8.52;;;;;;;8.93;57.75;101374.50;5055072;28;20036;-35
2022/03/12 02:34:50;;;;;;;11.32;8.52;;;;;;;8.92;57.09;101380.09;5056161;28;20414;-35
2022/03/12 02:37:32;;;;;;;11.65;8.75;;;;;;;8.92;57.11;101369.28;5055849;28;20075;-35
2022/03/12 02:40:01;;;;;;;10.50;8.27;;;;;;;8.93;57.26;101371.81;5056401;28;20112;-35
2022/03/12 02:42:28;;;;;;;11.45;8.40;;;;;;;8.92;57.28;101375.50;5056189;28;20059;-35
2022/03/12 02:44:54;;;;;;;11.15;8.35;;;;;;;8.91;56.96;101383.81;5055603;28;20036;-35
2022/03/12 02:47:22;;;;;;;9.70;7.68;;;;;;;8.92;57.48;101385.47;5055484;28;20039;-35
2022/03/12 02:49:59;;;;;;;10.95;8.82;;;;;;;8.91;57.21;101389.22;5055988;28;20047;-35
2022/03/12 02:52:27;;;;;;;11.35;8.40;;;;;;;8.82;57.08;101371.56;5055720;28;20070;-35
2022/03/12 02:54:55;;;;;;;11.07;8.95;;;;;;;8.87;57.03;101380.69;5055907;28;20025;-36
2022/03/12 02:57:26;;;;;;;10.52;8.55;;;;;;;8.87;56.75;101380.69;5056137;28;20107;-35
2022/03/12 02:59:53;;;;;;;9.35;7.90;;;;;;;8.94;56.69;101397.72;5055586;28;20090;-35
2022/03/12 03:02:31;;;;;;;10.93;8.20;;;;;;;8.87;56.16;101387.97;5055511;28;20032;-36
2022/03/12 03:04:57;;;;;;;9.73;8.43;;;;;;;8.92;56.72;101390.88;5055978;28;20082;-35
2022/03/12 03:07:24;;;;;;;10.43;8.73;;;;;;;8.92;56.47;101398.97;5056086;28;20445;-35
2022/03/12 03:09:50;;;;;;;10.52;8.50;;;;;;;8.91;56.95;101400.84;5055619;28;20021;-35
2022/03/12 03:12:15;;;;;;;11.70;9.35;;;;;;;8.91;57.13;101400.84;5055340;28;20048;-35
2022/03/12 03:14:42;;;;;;;11.43;8.55;;;;;;;8.89;55.95;101397.53;5056050;28;20025;-35
2022/03/12 03:17:12;;;;;;;10.48;8.98;;;;;;;8.86;56.44;101394.41;5054861;28;20449;-35
2022/03/12 03:19:38;;;;;;;10.80;8.65;;;;;;;8.80;56.71;101385.28;5055799;28;20040;-36
2022/03/12 03:22:05;;;;;;;11.68;8.45;;;;;;;8.84;56.63;101401.88;5055881;28;20033;-35
2022/03/12 03:24:30;;;;;;;11.45;8.18;;;;;;;8.72;57.38;101396.25;5055191;28;20488;-35
2022/03/12 03:26:58;;;;;;;12.85;8.73;;;;;;;8.76;56.95;101406.41;5054782;28;20037;-35
2022/03/12 03:29:26;;;;;;;10.30;8.35;;;;;;;8.71;57.03;101403.50;5055380;28;20083;-35
2022/03/12 03:31:52;;;;;;;11.23;8.63;;;;;;;8.62;57.12;101412.00;5054972;28;20131;-35
2022/03/12 03:34:18;;;;;;;11.23;7.82;;;;;;;8.50;57.37;101391.03;5055191;28;20115;-35
2022/03/12 03:36:45;;;;;;;10.18;8.50;;;;;;;8.59;58.37;101412.38;5053743;28;20128;-35
2022/03/12 03:39:10;;;;;;;9.93;8.10;;;;;;;8.51;58.79;101410.72;5054806;28;20035;-35
2022/03/12 03:41:36;;;;;;;10.82;8.85;;;;;;;8.50;57.61;101411.78;5055055;28;20100;-35
2022/03/12 03:44:02;;;;;;;12.88;8.63;;;;;;;8.46;58.76;101422.13;5055120;28;20067;-35
2022/03/12 03:46:27;;;;;;;10.40;8.38;;;;;;;8.44;58.94;101424.19;5055229;28;20029;-35
2022/03/12 03:48:54;;;;;;;11.37;8.40;;;;;;;8.39;59.13;101423.94;5054745;28;20017;-35
2022/03/12 03:51:21;;;;;;;11.85;8.52;;;;;;;8.39;59.20;101432.03;5054851;28;20025;-35
2022/03/12 03:53:48;;;;;;;9.98;7.90;;;;;;;8.33;59.62;101429.28;5054573;28;20036;-35
2022/03/12 03:56:13;;;;;;;9.70;7.88;;;;;;;8.21;60.68;101427.19;5054746;28;20029;-35
2022/03/12 03:58:39;;;;;;;9.27;8.07;;;;;;;8.22;59.91;101430.72;5055128;28;20040;-35
2022/03/12 04:01:10;;;;;;;11.00;8.90;;;;;;;8.19;60.79;101431.94;5054934;28;20040;-35
2022/03/12 04:03:37;;;;;;;10.20;7.93;;;;;;;8.12;61.16;101438.34;5054338;28;20028;-35
2022/03/12 04:06:04;;;;;;;10.10;8.07;;;;;;;8.11;61.09;101428.59;5054671;28;20036;-35
2022/03/12 04:08:30;;;;;;;10.18;7.95;;;;;;;8.11;62.13;101436.69;5054241;28;20484;-35
2022/03/12 04:10:57;;;;;;;10.07;7.80;;;;;;;8.12;62.29;101438.34;5054847;28;20029;-35
2022/03/12 04:13:22;;;;;;;10.23;7.80;;;;;;;8.04;62.74;101446.56;5054309;28;20346;-35
2022/03/12 04:15:50;;;;;;;10.05;8.00;;;;;;;7.96;62.61;101452.97;5054022;28;20036;-35
2022/03/12 04:18:16;;;;;;;8.55;7.32;;;;;;;7.92;64.33;101444.44;5054570;28;20029;-35
2022/03/12 04:20:46;;;;;;;9.85;7.68;;;;;;;7.94;64.08;101457.72;5054833;28;20033;-35
2022/03/12 04:23:12;;;;;;;8.95;7.93;;;;;;;7.91;64.79;101458.94;5053682;28;20033;-35
2022/03/12 04:25:38;;;;;;;;;;;;;;;7.96;63.11;101461.06;5054943;28;20028;-35
2022/03/12 04:28:04;;;;;;;9.23;7.68;;;;;;;7.90;64.30;101456.44;5053845;28;20349;-35
2022/03/12 04:30:31;;;;;;;9.48;7.93;;;;;;;7.82;65.15;101452.06;5053866;28;20036;-35
2022/03/12 04:32:56;;;;;;;11.02;8.43;;;;;;;7.74;64.79;101442.25;5053570;28;20048;-35
2022/03/12 04:35:22;;;;;;;10.65;7.75;;;;;;;7.78;65.11;101456.16;5053884;28;20389;-35
2022/03/12 04:37:48;;;;;;;9.30;7.80;;;;;;;7.70;64.99;101446.38;5053752;28;20115;-35
2022/03/12 04:40:21;;;;;;;9.50;7.90;;;;;;;7.76;65.41;101452.84;5054199;28;20673;-35
2022/03/12 04:42:46;;;;;;;10.18;8.00;;;;;;;7.60;65.65;101435.13;5054075;28;20045;-35
2022/03/12 04:45:14;;;;;;;8.68;7.78;;;;;;;7.71;66.37;101457.97;5053467;28;20121;-35
2022/03/12 04:47:44;;;;;;;9.23;8.23;;;;;;;7.68;66.79;101455.69;5053297;28;20490;-35
2022/03/12 04:50:14;;;;;;;9.23;7.82;;;;;;;7.68;67.20;101461.06;5053984;28;20029;-35
2022/03/12 04:52:43;;;;;;;9.50;7.72;;;;;;;7.67;67.90;101462.13;5053643;28;20102;-36
2022/03/12 04:55:14;;;;;;;8.98;7.25;;;;;;;7.57;68.86;101442.78;5053656;28;20507;-35
2022/03/12 04:57:41;;;;;;;8.13;6.95;;;;;;;7.67;70.61;101462.13;5053333;28;20024;-35
2022/03/12 05:00:10;;;;;;;9.95;7.15;;;;;;;7.67;70.14;101454.03;5053257;28;20116;-35
2022/03/12 05:02:35;;;;;;;11.02;7.00;;;;;;;7.61;71.47;101460.19;5053262;28;20111;-35
2022/03/12 05:05:01;;;;;;;9.87;7.53;;;;;;;7.54;72.69;101453.94;5053670;28;20057;-35
2022/03/12 05:07:27;;;;;;;7.47;6.57;;;;;;;7.65;72.37;101472.22;5052956;28;20267;-35
2022/03/12 05:09:55;;;;;;;9.00;6.78;;;;;;;7.65;72.42;101469.53;5053347;28;20094;-35
2022/03/12 05:12:25;;;;;;;8.45;6.65;;;;;;;7.66;72.92;101476.56;5053202;28;20024;-35
2022/03/12 05:14:54;;;;;;;7.57;6.75;;;;;;;7.67;72.84;101479.09;5053414;28;20036;-35
2022/03/12 05:17:26;;;;;;;7.40;6.60;;;;;;;7.69;72.57;101478.88;5052681;28;20036;-35
2022/03/12 05:19:52;;;;;;;8.25;7.00;;;;;;;7.65;73.36;101480.31;5052613;28;20371;-35
2022/03/12 05:22:17;;;;;;;7.20;6.50;;;;;;;7.63;74.23;101480.50;5053047;28;20048;-36
2022/03/12 05:24:42;;;;;;;9.83;7.27;;;;;;;7.65;74.39;101485.69;5053075;28;20025;-35
2022/03/12 05:27:14;;;;;;;8.53;6.90;;;;;;;7.61;74.73;101489.78;5052628;28;20037;-35
2022/03/12 05:29:41;;;;;;;8.68;7.43;;;;;;;7.48;75.47;101480.59;5053825;28;20025;-35
2022/03/12 05:32:12;;;;;;;7.97;6.90;;;;;;;7.52;75.83;101502.59;5052933;28;20047;-35
2022/03/12 05:34:38;;;;;;;7.72;6.85;;;;;;;7.57;75.51;101499.31;5053687;28;20025;-35
2022/03/12 05:37:08;;;;;;;8.18;6.60;;;;;;;7.59;75.10;101506.16;5052633;28;20031;-35
2022/03/12 05:39:34;;;;;;;7.45;6.47;;;;;;;7.60;75.90;101502.41;5053468;28;20111;-35
2022/03/12 05:42:02;;;;;;;7.68;6.45;;;;;;;7.50;76.59;101491.16;5052807;28;20064;-35
2022/03/12 05:44:28;;;;;;;9.80;6.95;;;;;;;7.58;76.12;101515.25;5052732;28;20025;-35
2022/03/12 05:46:53;;;;;;;9.43;6.93;;;;;;;7.55;76.35;101517.50;5053156;28;20039;-35
2022/03/12 05:49:19;;;;;;;8.93;6.83;;;;;;;7.53;76.72;101519.56;5052540;28;20029;-35
2022/03/12 05:51:44;;;;;;;6.88;6.18;;;;;;;7.52;77.05;101518.72;5052936;28;20132;-36
2022/03/12 05:54:10;;;;;;;7.43;6.55;;;;;;;7.53;76.90;101520.38;5053418;28;20060;-35
2022/03/12 05:56:40;;;;;;;10.13;6.70;;;;;;;7.49;77.02;101513.72;5052958;28;20493;-35
2022/03/12 05:59:07;;;;;;;8.63;6.65;;;;;;;7.45;77.89;101513.28;5052726;28;20029;-35
2022/03/12 06:01:33;;;;;;;7.50;6.72;;;;;;;7.45;77.38;101515.97;5057073;28;20036;-35
2022/03/12 06:04:00;;;;;;;9.25;6.90;;;;;;;7.41;77.83;101521.94;5056443;28;20525;-35
2022/03/12 06:06:27;;;;;;;9.45;6.50;;;;;;;7.41;78.28;101527.31;5057159;28;20029;-35
2022/03/12 06:08:56;;;;;;;8.15;6.88;;;;;;;7.38;77.89;101523.16;5056956;28;20501;-35
2022/03/12 06:11:23;;;;;;;8.13;6.88;;;;;;;7.32;77.90;101509.63;5056821;28;20025;-35
2022/03/12 06:13:59;;;;;;;9.30;7.35;;;;;;;7.33;78.27;101525.59;5056426;28;20123;-35
2022/03/12 06:16:25;;;;;;;7.93;6.07;;;;;;;7.30;78.13;101520.59;5056726;28;20055;-35
2022/03/12 06:18:54;;;;;;;7.88;7.00;;;;;;;7.32;78.16;101528.47;5056800;28;20064;-35
2022/03/12 06:21:20;;;;;;;7.60;6.80;;;;;;;7.27;78.14;101526.38;5057088;28;20025;-35
2022/03/12 06:23:46;;;;;;;9.55;7.85;;;;;;;7.26;78.78;101534.63;5056221;28;20036;-35
2022/03/12 06:26:14;;;;;;;8.05;7.03;;;;;;;7.25;78.75;101525.72;5056853;28;20025;-35
2022/03/12 06:28:40;;;;;;;7.72;6.93;;;;;;;7.33;78.32;101535.53;5055858;28;20491;-35
2022/03/12 06:31:06;;;;;;;9.90;7.28;;;;;;;7.34;78.99;101543.41;5055046;28;20032;-35
2022/03/12 06:33:32;;;;;;;9.70;7.75;;;;;;;7.32;78.39;101539.22;5056120;28;20457;-35
2022/03/12 06:35:57;;;;;;;9.47;7.10;;;;;;;7.30;78.69;101555.56;5056883;28;20040;-35
2022/03/12 06:38:24;;;;;;;9.47;7.30;;;;;;;7.35;79.01;101558.50;5055715;28;20116;-35
2022/03/12 06:40:51;;;;;;;9.18;7.80;;;;;;;7.23;79.67;101536.69;5056229;28;20025;-35
2022/03/12 06:43:20;;;;;;;8.48;7.60;;;;;;;7.33;80.23;101539.06;5055941;28;20145;-35
2022/03/12 06:45:49;;;;;;;8.70;7.40;;;;;;;7.40;80.96;101550.69;5055937;28;20043;-35
2022/03/12 06:48:16;;;;;;;8.10;6.85;;;;;;;7.43;80.37;101550.31;5055815;28;20101;-35
2022/03/12 06:50:42;;;;;;;9.10;6.63;;;;;;;7.44;80.91;101551.97;5055767;28;20501;-35
2022/03/12 06:53:07;;;;;;;7.40;6.00;;;;;;;7.51;80.95;101553.88;5055847;28;20025;-35
2022/03/12 06:55:33;;;;;;;8.53;7.27;;;;;;;7.52;81.07;101556.41;5055789;28;20044;-35
2022/03/12 06:57:59;;;;;;;7.05;6.32;;;;;;;7.54;81.27;101558.91;5055595;28;20033;-35
2022/03/12 07:00:27;;;;;;;7.97;6.50;;;;;;;7.60;81.54;101574.25;5055657;28;20369;-35
2022/03/12 07:02:53;;;;;;;6.95;6.25;;;;;;;7.63;82.22;101577.41;5055587;28;20384;-35
2022/03/12 07:05:19;;;;;;;7.95;6.70;;;;;;;7.67;81.81;101573.31;5055471;28;20087;-35
2022/03/12 07:07:44;;;;;;;7.80;6.88;;;;;;;7.69;82.05;101573.94;5055561;28;20123;-35
2022/03/12 07:10:10;;;;;;;9.43;7.10;;;;;;;7.71;82.19;101576.41;5055382;28;20072;-35
2022/03/12 07:12:37;;;;;;;8.17;7.30;;;;;;;7.77;82.25;101577.53;5054424;28;20025;-35
2022/03/12 07:15:04;;;;;;;7.40;6.70;;;;;;;7.80;82.19;101575.25;5055938;28;20021;-35
2022/03/12 07:17:31;;;;;;;8.15;7.30;;;;;;;7.72;82.30;101570.88;5054861;28;20044;-35
2022/03/12 07:19:56;;;;;;;7.85;6.68;;;;;;;7.79;82.04;101579.00;5054999;28;20074;-35
2022/03/12 07:22:21;;;;;;;7.93;6.20;;;;;;;7.84;82.39;101586.47;5055335;28;20033;-35
2022/03/12 07:24:47;;;;;;;8.13;6.20;;;;;;;7.82;82.81;101577.78;5054958;28;20111;-35
2022/03/12 07:27:12;;;;;;;7.32;6.60;;;;;;;7.90;82.73;101585.69;5055179;28;20071;-35
2022/03/12 07:29:38;;;;;;;7.77;6.97;;;;;;;7.87;82.97;101581.56;5055343;28;20036;-35
2022/03/12 07:32:04;;;;;;;8.50;7.07;;;;;;;7.93;82.96;101591.53;5054682;28;20025;-35
2022/03/12 07:34:30;;;;;;;9.02;6.57;;;;;;;7.95;83.01;101594.88;5055037;28;20039;-35
2022/03/12 07:36:55;;;;;;;7.13;6.25;;;;;;;7.91;83.43;101585.53;5054855;28;20029;-35
2022/03/12 07:39:21;;;;;;;8.33;7.33;;;;;;;8.04;83.63;101603.63;5055048;28;20472;-35
2022/03/12 07:41:47;;;;;;;7.32;6.50;;;;;;;8.11;83.60;101607.22;5054588;28;20040;-35
2022/03/12 07:44:12;;;;;;;7.78;6.18;;;;;;;8.19;83.07;101604.34;5054945;28;20029;-35
2022/03/12 07:46:38;;;;;;;9.30;6.57;;;;;;;8.31;82.93;101612.75;5055238;28;20033;-35
2022/03/12 07:49:04;;;;;;;9.00;6.75;;;;;;;8.35;82.98;101611.31;5054736;28;20032;-35
2022/03/12 07:51:31;;;;;;;7.78;6.55;;;;;;;8.46;82.00;101623.44;5055384;28;20078;-35
2022/03/12 07:53:58;;;;;;;6.63;6.03;;;;;;;8.48;82.55;101611.41;5054586;28;20112;-35
2022/03/12 07:56:24;;;;;;;7.00;5.93;;;;;;;8.66;82.59;101623.56;5054764;28;20112;-35
2022/03/12 07:58:49;;;;;;;7.68;6.32;;;;;;;8.79;82.10;101620.94;5054204;28;20121;-35
2022/03/12 08:01:15;;;;;;;6.83;6.17;;;;;;;8.87;82.71;101626.13;5054839;28;20059;-35
2022/03/12 08:03:40;;;;;;;7.67;6.40;;;;;;;8.83;81.90;101600.59;5054803;28;20094;-35
2022/03/12 08:06:06;;;;;;;7.13;5.77;;;;;;;8.95;81.25;101623.28;5054739;28;20084;-35
2022/03/12 08:08:32;;;;;;;;;;;;;;;9.09;80.44;101628.75;5054803;28;20078;-35
2022/03/12 08:13:44;;;;;;;6.25;5.65;;;;;;;9.21;81.79;101632.50;5054302;28;20044;-35
2022/03/12 08:16:13;;;;;;;7.28;5.45;;;;;;;9.20;81.45;101626.28;5054475;28;20035;-35
2022/03/12 08:18:38;;;;;;;5.70;5.07;;;;;;;9.36;81.62;101643.13;5054169;28;20031;-35
2022/03/12 08:21:03;;;;;;;5.63;5.03;;;;;;;9.38;81.36;101638.38;5054862;28;20116;-35
2022/03/12 08:23:29;;;;;;;6.50;4.80;;;;;;;9.50;81.40;101642.13;5052853;28;20029;-35
2022/03/12 08:25:54;;;;;;;5.13;4.50;;;;;;;9.58;80.71;101643.81;5054605;28;20378;-35
2022/03/12 08:28:20;;;;;;;7.32;5.35;;;;;;;9.63;80.34;101635.94;5053922;28;20029;-35
2022/03/12 08:30:46;;;;;;;5.30;4.45;;;;;;;9.68;79.80;101634.28;5054565;28;20032;-35
2022/03/12 08:33:12;;;;;;;6.22;5.38;;;;;;;9.79;80.10;101646.34;5053570;28;20351;-35
2022/03/12 08:35:38;;;;;;;5.90;4.95;;;;;;;9.77;79.73;101637.63;5052516;28;20037;-35
2022/03/12 08:38:04;;;;;;;4.85;4.32;;;;;;;10.01;79.20;101668.59;5053966;28;20021;-35
2022/03/12 08:40:29;;;;;;;7.35;4.55;;;;;;;10.01;79.68;101664.03;5052729;28;20029;-35
2022/03/12 08:42:55;;;;;;;6.18;4.53;;;;;;;10.04;79.23;101660.06;5054252;28;20053;-35
2022/03/12 08:45:20;;;;;;;5.68;4.53;;;;;;;10.19;78.96;101667.97;5054258;28;20391;-35
2022/03/12 08:47:46;;;;;;;5.90;4.70;;;;;;;10.20;78.84;101653.41;5053913;28;20032;-35
2022/03/12 08:50:12;;;;;;;6.05;4.60;;;;;;;10.40;78.70;101662.38;5054070;28;20108;-35
2022/03/12 08:52:38;;;;;;;6.13;4.68;;;;;;;10.48;77.62;101658.63;5053510;28;20036;-35
2022/03/12 08:55:07;;;;;;;7.45;4.97;;;;;;;10.52;77.80;101662.56;5054018;28;20428;-36
2022/03/12 08:57:33;;;;;;;6.45;4.53;;;;;;;10.58;76.99;101664.41;5053541;28;20020;-36
2022/03/12 08:59:58;;;;;;;5.75;4.45;;;;;;;10.63;76.73;101669.19;5053532;28;20036;-34
2022/03/12 09:02:24;;;;;;;4.68;4.15;;;;;;;10.68;77.08;101672.09;5053907;28;20060;-35
2022/03/12 09:04:50;;;;;;;6.60;4.35;;;;;;;10.75;77.14;101676.47;5053151;28;20029;-35
2022/03/12 09:07:15;;;;;;;6.93;4.78;;;;;;;10.74;76.13;101672.09;5054101;28;20059;-35
2022/03/12 09:09:40;;;;;;;6.25;4.28;;;;;;;10.76;75.96;101680.00;5054151;28;20115;-36
2022/03/12 09:12:08;;;;;;;6.27;3.73;;;;;;;10.78;75.91;101672.47;5053779;28;20098;-36
2022/03/12 09:14:35;;;;;;;6.45;4.70;;;;;;;10.79;76.01;101668.75;5053784;28;20109;-35
2022/03/12 09:17:02;;;;;;;5.57;4.22;;;;;;;10.97;76.63;101679.72;5053084;28;20029;-35
2022/03/12 09:19:27;;;;;;;5.65;4.10;;;;;;;10.99;76.00;101672.22;5053130;28;20029;-35
2022/03/12 09:21:55;;;;;;;4.88;3.60;;;;;;;11.09;75.54;101672.59;5053364;28;20040;-35
2022/03/12 09:24:21;;;;;;;4.82;3.70;;;;;;;11.14;74.17;101679.25;5053738;28;20467;-35
2022/03/12 09:26:46;;;;;;;4.80;3.55;;;;;;;11.14;73.78;101681.97;5053491;28;20033;-35
2022/03/12 09:29:11;;;;;;;4.67;3.27;;;;;;;11.18;73.05;101683.22;5053092;28;20029;-35
2022/03/12 09:31:37;;;;;;;4.97;2.87;;;;;;;11.16;72.70;101682.56;5052974;28;20056;-36
2022/03/12 09:34:02;;;;;;;5.75;3.20;;;;;;;11.17;72.68;101678.81;5052656;28;20440;-36
2022/03/12 09:36:28;;;;;;;6.97;3.47;;;;;;;11.18;71.53;101683.22;5052645;28;20033;-36
2022/03/12 09:38:54;;;;;;;5.43;2.97;;;;;;;11.15;71.98;101668.22;5053163;28;20382;-36
2022/03/12 09:41:19;;;;;;;4.70;2.97;;;;;;;11.28;71.87;101678.16;5052980;28;20029;-36
2022/03/12 09:43:45;;;;;;;11.17;4.77;;;;;;;11.31;72.15;101675.84;5053887;28;20072;-36
2022/03/12 09:46:10;;;;;;;7.83;4.83;;;;;;;11.37;71.90;101671.47;5052966;28;20275;-36
2022/03/12 09:48:36;;;;;;;11.27;6.93;;;;;;;11.46;70.78;101682.84;5052998;28;20271;-36
2022/03/12 09:51:02;;;;;;;12.50;8.35;;;;;;;11.52;71.44;101680.13;5052957;28;20081;-36
2022/03/12 09:53:27;;;;;;;9.73;5.18;;;;;;;11.57;69.79;101672.19;5053305;28;20033;-36
2022/03/12 09:55:52;;;;;;;6.57;3.23;;;;;;;11.65;69.06;101679.19;5052638;28;20059;-36
2022/03/12 09:58:18;;;;;;;4.07;2.30;;;;;;;11.62;67.21;101670.69;5051680;28;20037;-36
2022/03/12 10:00:44;;;;;;;4.82;2.58;;;;;;;11.66;66.17;101685.44;5052837;28;20448;-36
2022/03/12 10:03:09;;;;;;;3.85;1.85;;;;;;;11.68;66.46;101689.59;5051914;28;20027;-36
2022/03/12 10:05:34;;;;;;;4.33;1.80;;;;;;;11.71;66.30;101697.31;5052833;28;20064;-36
2022/03/12 10:08:00;;;;;;;7.10;2.50;;;;;;;11.66;66.32;101696.28;5052423;28;20374;-36
2022/03/12 10:10:26;;;;;;;4.50;1.83;;;;;;;11.64;65.47;101699.22;5053525;28;20033;-36
2022/03/12 10:12:52;;;;;;;5.75;2.10;;;;;;;11.68;65.11;101699.63;5051956;28;20084;-35
2022/03/12 10:15:19;;;;;;;5.70;1.80;;;;;;;11.67;65.31;101687.97;5052550;28;20038;-35
2022/03/12 10:17:45;;;;;;;5.13;1.80;;;;;;;11.76;65.13;101697.50;5051880;28;20033;-35
2022/03/12 10:20:11;;;;;;;6.00;1.83;;;;;;;11.75;66.26;101673.31;5052861;28;20061;-36
2022/03/12 10:22:40;;;;;;;4.00;1.85;;;;;;;11.96;65.53;101696.56;5052865;28;20029;-35
2022/03/12 10:25:07;;;;;;;5.40;2.17;;;;;;;12.01;64.72;101699.44;5051713;28;20456;-35
2022/03/12 10:27:33;;;;;;;5.82;2.10;;;;;;;12.05;65.21;101689.78;5051900;28;20023;-35
2022/03/12 10:29:59;;;;;;;6.57;2.00;;;;;;;11.94;64.07;101676.97;5052433;28;20021;-35
2022/03/12 10:32:41;;;;;;;3.80;1.95;;;;;;;12.03;63.97;101695.44;5052273;28;20025;-35
2022/03/12 10:35:08;;;;;;;4.38;2.10;;;;;;;12.01;64.04;101707.56;5053182;28;20104;-35
2022/03/12 10:37:34;;;;;;;3.60;1.90;;;;;;;12.00;64.31;101693.16;5052239;28;20025;-35
2022/03/12 10:40:06;;;;;;;5.95;2.10;;;;;;;12.08;63.85;101698.31;5052729;28;20029;-35
2022/03/12 10:42:32;;;;;;;3.15;1.60;;;;;;;12.13;63.58;101699.56;5052892;28;20049;-35
2022/03/12 10:45:12;;;;;;;3.90;1.80;;;;;;;12.17;63.50;101701.59;5052907;28;20354;-35
2022/03/12 10:47:49;;;;;;;4.45;1.63;;;;;;;12.18;62.90;101710.56;5053963;28;20036;-35
2022/03/12 10:50:22;;;;;;;4.63;2.15;;;;;;;12.21;63.19;101707.41;5056567;28;20028;-35
2022/03/12 10:52:50;;;;;;;5.55;1.60;;;;;;;12.22;63.22;101711.78;5056434;28;20025;-35
2022/03/12 10:55:24;;;;;;;4.60;1.80;;;;;;;12.29;63.19;101701.69;5056439;28;20033;-35
2022/03/12 10:57:59;;;;;;;4.80;1.98;;;;;;;12.33;62.91;101695.63;5055689;28;20051;-35
2022/03/12 11:00:26;;;;;;;4.88;1.77;;;;;;;12.56;63.82;101695.00;5056294;28;20033;-35
2022/03/12 11:02:53;;;;;;;4.40;1.90;;;;;;;12.73;62.98;101697.13;5055857;28;20028;-35
2022/03/12 11:05:25;;;;;;;4.40;1.88;;;;;;;12.86;61.71;101697.00;5054223;28;20037;-36
2022/03/12 11:07:50;;;;;;;4.00;1.83;;;;;;;12.90;60.46;101690.06;5054916;28;20431;-36
2022/03/12 11:10:24;;;;;;;4.78;1.73;;;;;;;13.02;60.26;101685.53;5055618;28;20033;-36
2022/03/12 11:12:51;;;;;;;4.07;1.70;;;;;;;13.21;59.48;101697.22;5055863;28;20029;-36
2022/03/12 11:15:16;;;;;;;6.05;2.10;;;;;;;13.20;58.69;101681.97;5055594;28;20381;-36
2022/03/12 11:17:47;;;;;;;2.40;1.40;;;;;;;13.42;59.04;101695.94;5055975;28;20131;-36
2022/03/12 11:20:21;;;;;;;4.60;1.58;;;;;;;13.51;58.52;101704.59;5055220;28;20244;-36
2022/03/12 11:22:49;;;;;;;5.03;1.92;;;;;;;13.48;58.45;101702.34;5055417;28;20396;-36
2022/03/12 11:25:20;;;;;;;3.40;1.85;;;;;;;13.53;58.20;101708.75;5055908;28;20029;-36
2022/03/12 11:27:49;;;;;;;3.35;1.70;;;;;;;13.52;57.79;101706.28;5054997;28;20029;-36
2022/03/12 11:30:20;;;;;;;4.10;1.65;;;;;;;13.48;57.57;101703.19;5055185;28;20029;-36